sensor_id;sensor_type;location;lat;lon;timestamp;pressure;altitude;pressure_sealevel;temperature;humidity
71948;BME280;63257;55.082;38.772;2024-03-23T00:54:24;99058.78;;;-0.30;80.85
71948;BME280;63257;55.082;38.772;2024-03-23T00:56:50;99057.03;;;-0.29;80.60
71948;BME280;63257;55.082;38.772;2024-03-23T00:59:16;99053.47;;;-0.25;80.85
71948;BME280;63257;55.082;38.772;2024-03-23T01:01:42;99032.97;;;-0.36;80.13
71948;BME280;63257;55.082;38.772;2024-03-23T01:04:08;99033.69;;;-0.29;80.01
71948;BME280;63257;55.082;38.772;2024-03-23T01:06:33;99058.38;;;-0.13;80.76
71948;BME280;63257;55.082;38.772;2024-03-23T01:08:59;99044.56;;;-0.13;80.14
71948;BME280;63257;55.082;38.772;2024-03-23T01:11:25;99030.75;;;-0.15;80.39
71948;BME280;63257;55.082;38.772;2024-03-23T01:13:53;99040.22;;;-0.13;80.75
71948;BME280;63257;55.082;38.772;2024-03-23T01:16:20;99034.94;;;-0.10;80.50
71948;BME280;63257;55.082;38.772;2024-03-23T01:18:46;99028.69;;;-0.01;80.65
71948;BME280;63257;55.082;38.772;2024-03-23T01:21:12;99030.34;;;0.03;80.68
71948;BME280;63257;55.082;38.772;2024-03-23T01:23:38;99038.91;;;0.05;80.06
71948;BME280;63257;55.082;38.772;2024-03-23T01:26:04;99025.81;;;0.11;80.54
71948;BME280;63257;55.082;38.772;2024-03-23T01:28:29;99023.22;;;0.11;79.78
71948;BME280;63257;55.082;38.772;2024-03-23T01:30:55;99008.56;;;0.09;80.38
71948;BME280;63257;55.082;38.772;2024-03-23T01:33:21;99012.81;;;0.11;79.90
71948;BME280;63257;55.082;38.772;2024-03-23T01:35:47;98989.50;;;0.10;80.10
71948;BME280;63257;55.082;38.772;2024-03-23T01:38:13;99010.72;;;0.26;79.79
71948;BME280;63257;55.082;38.772;2024-03-23T01:40:39;98986.69;;;0.17;80.10
71948;BME280;63257;55.082;38.772;2024-03-23T01:43:07;99003.56;;;0.34;79.39
71948;BME280;63257;55.082;38.772;2024-03-23T01:45:36;99016.50;;;0.36;79.67
71948;BME280;63257;55.082;38.772;2024-03-23T01:48:02;99012.13;;;0.38;79.70
71948;BME280;63257;55.082;38.772;2024-03-23T01:50:29;98998.22;;;0.40;79.82
71948;BME280;63257;55.082;38.772;2024-03-23T01:53:00;98995.59;;;0.42;79.53
71948;BME280;63257;55.082;38.772;2024-03-23T01:55:27;98973.25;;;0.36;79.59
71948;BME280;63257;55.082;38.772;2024-03-23T01:57:56;98998.72;;;0.53;79.58
71948;BME280;63257;55.082;38.772;2024-03-23T02:00:22;99000.25;;;0.60;79.18
71948;BME280;63257;55.082;38.772;2024-03-23T02:02:48;98993.28;;;0.62;79.52
71948;BME280;63257;55.082;38.772;2024-03-23T02:05:14;98990.59;;;0.65;79.01
71948;BME280;63257;55.082;38.772;2024-03-23T02:07:41;98982.72;;;0.70;79.43
71948;BME280;63257;55.082;38.772;2024-03-23T02:10:09;98958.69;;;0.62;79.02
71948;BME280;63257;55.082;38.772;2024-03-23T02:12:36;98982.47;;;0.78;78.73
71948;BME280;63257;55.082;38.772;2024-03-23T02:15:03;98980.53;;;0.84;78.62
71948;BME280;63257;55.082;38.772;2024-03-23T02:17:34;98951.44;;;0.73;79.36
71948;BME280;63257;55.082;38.772;2024-03-23T02:20:01;98954.78;;;0.77;78.83
71948;BME280;63257;55.082;38.772;2024-03-23T02:22:37;98968.84;;;0.99;78.96
71948;BME280;63257;55.082;38.772;2024-03-23T02:25:04;98950.88;;;0.92;78.75
71948;BME280;63257;55.082;38.772;2024-03-23T02:27:30;98957.56;;;1.00;78.31
71948;BME280;63257;55.082;38.772;2024-03-23T02:29:56;98948.94;;;0.98;78.75
71948;BME280;63257;55.082;38.772;2024-03-23T02:32:21;98966.81;;;1.09;79.02
71948;BME280;63257;55.082;38.772;2024-03-23T02:34:47;98946.75;;;1.14;79.03
71948;BME280;63257;55.082;38.772;2024-03-23T02:37:13;98946.69;;;1.16;79.22
71948;BME280;63257;55.082;38.772;2024-03-23T02:39:39;98948.91;;;1.28;78.95
71948;BME280;63257;55.082;38.772;2024-03-23T02:42:05;98961.97;;;1.27;78.68
71948;BME280;63257;55.082;38.772;2024-03-23T02:44:30;98957.56;;;1.29;79.54
71948;BME280;63257;55.082;38.772;2024-03-23T02:46:56;98922.97;;;1.27;79.64
71948;BME280;63257;55.082;38.772;2024-03-23T02:49:22;98953.69;;;1.42;79.11
71948;BME280;63257;55.082;38.772;2024-03-23T02:51:48;98921.09;;;1.32;80.26
71948;BME280;63257;55.082;38.772;2024-03-23T02:54:14;98935.59;;;1.39;79.61
71948;BME280;63257;55.082;38.772;2024-03-23T02:56:40;98920.38;;;1.53;79.93
71948;BME280;63257;55.082;38.772;2024-03-23T02:59:06;98930.72;;;1.55;79.65
71948;BME280;63257;55.082;38.772;2024-03-23T03:01:32;98907.69;;;1.44;80.22
71948;BME280;63257;55.082;38.772;2024-03-23T03:04:00;98913.28;;;1.59;80.15
71948;BME280;63257;55.082;38.772;2024-03-23T03:06:26;98928.72;;;1.63;80.14
71948;BME280;63257;55.082;38.772;2024-03-23T03:08:52;98920.66;;;1.71;80.43
71948;BME280;63257;55.082;38.772;2024-03-23T03:11:21;98918.13;;;1.69;80.05
71948;BME280;63257;55.082;38.772;2024-03-23T03:13:47;98912.88;;;1.71;80.45
71948;BME280;63257;55.082;38.772;2024-03-23T03:16:13;98911.03;;;1.75;80.72
71948;BME280;63257;55.082;38.772;2024-03-23T03:18:40;98911.03;;;1.75;81.55
71948;BME280;63257;55.082;38.772;2024-03-23T03:21:06;98904.06;;;1.75;81.64
71948;BME280;63257;55.082;38.772;2024-03-23T03:23:40;98898.75;;;1.78;81.69
71948;BME280;63257;55.082;38.772;2024-03-23T03:26:06;98890.94;;;1.78;81.37
71948;BME280;63257;55.082;38.772;2024-03-23T03:28:32;98870.47;;;1.69;82.22
71948;BME280;63257;55.082;38.772;2024-03-23T03:30:59;98880.28;;;1.86;82.50
71948;BME280;63257;55.082;38.772;2024-03-23T03:33:27;98876.72;;;1.89;82.94
71948;BME280;63257;55.082;38.772;2024-03-23T03:35:53;98850.94;;;1.81;82.48
71948;BME280;63257;55.082;38.772;2024-03-23T03:38:20;98870.38;;;1.96;82.50
71948;BME280;63257;55.082;38.772;2024-03-23T03:40:46;98861.56;;;2.00;82.91
71948;BME280;63257;55.082;38.772;2024-03-23T03:43:12;98854.66;;;1.99;82.53
71948;BME280;63257;55.082;38.772;2024-03-23T03:45:38;98836.22;;;1.81;83.41
71948;BME280;63257;55.082;38.772;2024-03-23T03:48:04;98851.28;;;1.97;83.11
71948;BME280;63257;55.082;38.772;2024-03-23T03:50:30;98821.44;;;1.82;83.38
71948;BME280;63257;55.082;38.772;2024-03-23T03:52:56;98832.25;;;1.95;83.12
71948;BME280;63257;55.082;38.772;2024-03-23T03:55:22;98825.38;;;1.94;83.40
71948;BME280;63257;55.082;38.772;2024-03-23T03:57:48;98826.38;;;1.90;83.58
71948;BME280;63257;55.082;38.772;2024-03-23T04:00:14;98833.94;;;1.96;83.35
71948;BME280;63257;55.082;38.772;2024-03-23T04:02:40;98816.53;;;1.98;83.21
71948;BME280;63257;55.082;38.772;2024-03-23T04:05:06;98803.72;;;1.92;83.47
71948;BME280;63257;55.082;38.772;2024-03-23T04:07:34;98793.59;;;1.84;83.57
71948;BME280;63257;55.082;38.772;2024-03-23T04:09:59;98806.91;;;2.00;83.65
71948;BME280;63257;55.082;38.772;2024-03-23T04:12:25;98809.31;;;2.06;83.78
71948;BME280;63257;55.082;38.772;2024-03-23T04:14:51;98803.09;;;2.09;83.16
71948;BME280;63257;55.082;38.772;2024-03-23T04:17:17;98773.88;;;2.02;82.74
71948;BME280;63257;55.082;38.772;2024-03-23T04:19:44;98796.44;;;2.25;83.21
71948;BME280;63257;55.082;38.772;2024-03-23T04:22:10;98786.94;;;2.24;83.05
71948;BME280;63257;55.082;38.772;2024-03-23T04:24:35;98778.16;;;2.27;82.66
71948;BME280;63257;55.082;38.772;2024-03-23T04:27:01;98783.56;;;2.44;82.56
71948;BME280;63257;55.082;38.772;2024-03-23T04:29:27;98787.59;;;2.53;81.71
71948;BME280;63257;55.082;38.772;2024-03-23T04:31:53;98768.41;;;2.54;81.52
71948;BME280;63257;55.082;38.772;2024-03-23T04:34:19;98774.97;;;2.64;81.34
71948;BME280;63257;55.082;38.772;2024-03-23T04:36:44;98777.50;;;2.66;81.04
71948;BME280;63257;55.082;38.772;2024-03-23T04:39:10;98773.75;;;2.73;81.06
71948;BME280;63257;55.082;38.772;2024-03-23T04:41:36;98772.47;;;2.83;80.97
71948;BME280;63257;55.082;38.772;2024-03-23T04:44:02;98770.84;;;2.81;81.05
71948;BME280;63257;55.082;38.772;2024-03-23T04:46:27;98760.16;;;2.87;81.43
71948;BME280;63257;55.082;38.772;2024-03-23T04:48:53;98731.03;;;2.77;80.33
71948;BME280;63257;55.082;38.772;2024-03-23T04:51:23;98756.06;;;3.02;80.62
71948;BME280;63257;55.082;38.772;2024-03-23T04:53:49;98737.97;;;2.99;80.62
71948;BME280;63257;55.082;38.772;2024-03-23T04:56:16;98741.91;;;3.09;80.63
71948;BME280;63257;55.082;38.772;2024-03-23T04:58:43;98717.56;;;3.09;80.52
71948;BME280;63257;55.082;38.772;2024-03-23T05:01:11;98735.22;;;3.22;80.00
71948;BME280;63257;55.082;38.772;2024-03-23T05:03:37;98730.59;;;3.29;79.71
71948;BME280;63257;55.082;38.772;2024-03-23T05:06:04;98729.25;;;3.41;79.30
71948;BME280;63257;55.082;38.772;2024-03-23T05:08:31;98725.84;;;3.39;79.77
71948;BME280;63257;55.082;38.772;2024-03-23T05:10:56;98699.75;;;3.39;79.48
71948;BME280;63257;55.082;38.772;2024-03-23T05:13:22;98721.19;;;3.46;79.56
71948;BME280;63257;55.082;38.772;2024-03-23T05:15:54;98698.38;;;3.51;79.26
71948;BME280;63257;55.082;38.772;2024-03-23T05:18:21;98697.91;;;3.62;79.11
71948;BME280;63257;55.082;38.772;2024-03-23T05:20:47;98704.13;;;3.78;79.11
71948;BME280;63257;55.082;38.772;2024-03-23T05:23:13;98698.25;;;3.73;78.81
71948;BME280;63257;55.082;38.772;2024-03-23T05:25:38;98709.13;;;3.83;78.32
71948;BME280;63257;55.082;38.772;2024-03-23T05:28:04;98716.19;;;3.81;78.46
71948;BME280;63257;55.082;38.772;2024-03-23T05:30:31;98713.44;;;3.84;79.17
71948;BME280;63257;55.082;38.772;2024-03-23T05:32:57;98693.25;;;3.68;78.49
71948;BME280;63257;55.082;38.772;2024-03-23T05:35:22;98717.94;;;3.80;78.66
71948;BME280;63257;55.082;38.772;2024-03-23T05:37:48;98711.41;;;3.90;78.43
71948;BME280;63257;55.082;38.772;2024-03-23T05:40:14;98709.34;;;3.78;78.64
71948;BME280;63257;55.082;38.772;2024-03-23T05:42:41;98674.91;;;3.70;78.20
71948;BME280;63257;55.082;38.772;2024-03-23T05:45:07;98695.72;;;3.90;77.93
71948;BME280;63257;55.082;38.772;2024-03-23T05:47:33;98692.97;;;3.94;77.62
71948;BME280;63257;55.082;38.772;2024-03-23T05:49:59;98687.53;;;3.98;77.37
71948;BME280;63257;55.082;38.772;2024-03-23T05:52:25;98695.16;;;4.03;77.52
71948;BME280;63257;55.082;38.772;2024-03-23T05:54:52;98689.31;;;3.98;77.09
71948;BME280;63257;55.082;38.772;2024-03-23T05:57:18;98682.88;;;3.86;77.88
71948;BME280;63257;55.082;38.772;2024-03-23T05:59:45;98696.50;;;3.93;77.30
71948;BME280;63257;55.082;38.772;2024-03-23T06:02:11;98692.81;;;3.97;77.55
71948;BME280;63257;55.082;38.772;2024-03-23T06:04:37;98685.22;;;4.11;77.23
71948;BME280;63257;55.082;38.772;2024-03-23T06:07:04;98670.38;;;4.12;76.67
71948;BME280;63257;55.082;38.772;2024-03-23T06:09:32;98655.34;;;3.98;76.69
71948;BME280;63257;55.082;38.772;2024-03-23T06:11:58;98651.59;;;4.03;76.41
71948;BME280;63257;55.082;38.772;2024-03-23T06:14:23;98669.72;;;4.25;75.98
71948;BME280;63257;55.082;38.772;2024-03-23T06:16:49;98674.19;;;4.23;75.67
71948;BME280;63257;55.082;38.772;2024-03-23T06:19:15;98672.19;;;4.29;75.42
71948;BME280;63257;55.082;38.772;2024-03-23T06:21:44;98662.91;;;4.40;75.44
71948;BME280;63257;55.082;38.772;2024-03-23T06:24:11;98659.06;;;4.48;75.59
71948;BME280;63257;55.082;38.772;2024-03-23T06:26:37;98647.63;;;4.50;75.23
71948;BME280;63257;55.082;38.772;2024-03-23T06:29:02;98641.03;;;4.43;74.62
71948;BME280;63257;55.082;38.772;2024-03-23T06:31:28;98655.09;;;4.58;74.97
71948;BME280;63257;55.082;38.772;2024-03-23T06:33:55;98661.31;;;4.55;74.66
71948;BME280;63257;55.082;38.772;2024-03-23T06:36:21;98663.19;;;4.53;74.75
71948;BME280;63257;55.082;38.772;2024-03-23T06:38:47;98662.16;;;4.56;75.57
71948;BME280;63257;55.082;38.772;2024-03-23T06:41:13;98652.25;;;4.63;75.48
71948;BME280;63257;55.082;38.772;2024-03-23T06:43:38;98659.41;;;4.76;75.22
71948;BME280;63257;55.082;38.772;2024-03-23T06:46:05;98622.75;;;4.61;74.98
71948;BME280;63257;55.082;38.772;2024-03-23T06:48:31;98650.41;;;4.65;75.06
71948;BME280;63257;55.082;38.772;2024-03-23T06:50:57;98633.41;;;4.56;75.40
71948;BME280;63257;55.082;38.772;2024-03-23T06:53:23;98642.34;;;4.69;75.91
71948;BME280;63257;55.082;38.772;2024-03-23T06:55:53;98626.50;;;4.72;74.62
71948;BME280;63257;55.082;38.772;2024-03-23T06:58:23;98638.56;;;4.75;75.32
71948;BME280;63257;55.082;38.772;2024-03-23T07:00:50;98614.91;;;4.61;76.20
71948;BME280;63257;55.082;38.772;2024-03-23T07:03:18;98637.81;;;4.73;75.50
71948;BME280;63257;55.082;38.772;2024-03-23T07:05:44;98623.81;;;4.56;76.97
71948;BME280;63257;55.082;38.772;2024-03-23T07:08:12;98638.66;;;4.73;76.97
71948;BME280;63257;55.082;38.772;2024-03-23T07:10:41;98623.91;;;4.55;77.50
71948;BME280;63257;55.082;38.772;2024-03-23T07:13:06;98608.31;;;4.53;77.54
71948;BME280;63257;55.082;38.772;2024-03-23T07:15:33;98629.09;;;4.72;77.62
71948;BME280;63257;55.082;38.772;2024-03-23T07:17:59;98627.34;;;4.73;77.23
71948;BME280;63257;55.082;38.772;2024-03-23T07:20:25;98622.28;;;4.70;77.06
71948;BME280;63257;55.082;38.772;2024-03-23T07:22:50;98617.59;;;4.59;77.03
71948;BME280;63257;55.082;38.772;2024-03-23T07:25:16;98615.44;;;4.67;77.98
71948;BME280;63257;55.082;38.772;2024-03-23T07:27:43;98618.28;;;4.63;77.79
71948;BME280;63257;55.082;38.772;2024-03-23T07:30:09;98613.50;;;4.71;77.88
71948;BME280;63257;55.082;38.772;2024-03-23T07:32:35;98589.59;;;4.61;77.63
71948;BME280;63257;55.082;38.772;2024-03-23T07:35:02;98600.44;;;4.88;77.09
71948;BME280;63257;55.082;38.772;2024-03-23T07:37:29;98588.88;;;4.92;76.44
71948;BME280;63257;55.082;38.772;2024-03-23T07:39:55;98600.56;;;5.03;76.10
71948;BME280;63257;55.082;38.772;2024-03-23T07:42:21;98598.25;;;4.97;75.87
71948;BME280;63257;55.082;38.772;2024-03-23T07:44:47;98583.09;;;5.03;75.98
71948;BME280;63257;55.082;38.772;2024-03-23T07:47:12;98570.63;;;5.08;75.32
71948;BME280;63257;55.082;38.772;2024-03-23T07:49:38;98549.34;;;4.99;75.52
71948;BME280;63257;55.082;38.772;2024-03-23T07:52:05;98566.03;;;4.96;75.74
71948;BME280;63257;55.082;38.772;2024-03-23T07:54:31;98587.16;;;5.09;77.01
71948;BME280;63257;55.082;38.772;2024-03-23T07:56:57;98584.47;;;5.10;76.46
71948;BME280;63257;55.082;38.772;2024-03-23T07:59:23;98566.13;;;4.95;76.70
71948;BME280;63257;55.082;38.772;2024-03-23T08:01:48;98586.69;;;5.18;76.40
71948;BME280;63257;55.082;38.772;2024-03-23T08:04:15;98569.56;;;5.29;76.20
71948;BME280;63257;55.082;38.772;2024-03-23T08:06:41;98570.00;;;5.37;75.64
71948;BME280;63257;55.082;38.772;2024-03-23T08:09:06;98546.09;;;5.11;75.19
71948;BME280;63257;55.082;38.772;2024-03-23T08:11:32;98560.34;;;5.21;75.19
71948;BME280;63257;55.082;38.772;2024-03-23T08:14:01;98532.31;;;5.07;75.15
71948;BME280;63257;55.082;38.772;2024-03-23T08:16:27;98531.53;;;5.05;74.90
71948;BME280;63257;55.082;38.772;2024-03-23T08:18:54;98557.47;;;5.26;74.87
71948;BME280;63257;55.082;38.772;2024-03-23T08:21:21;98533.69;;;5.15;74.47
71948;BME280;63257;55.082;38.772;2024-03-23T08:23:48;98549.56;;;5.28;74.96
71948;BME280;63257;55.082;38.772;2024-03-23T08:26:15;98534.81;;;5.26;75.22
71948;BME280;63257;55.082;38.772;2024-03-23T08:28:42;98538.84;;;5.32;75.67
71948;BME280;63257;55.082;38.772;2024-03-23T08:31:09;98542.47;;;5.30;76.06
71948;BME280;63257;55.082;38.772;2024-03-23T08:33:35;98518.19;;;5.28;76.29
71948;BME280;63257;55.082;38.772;2024-03-23T08:36:03;98511.75;;;5.17;76.93
71948;BME280;63257;55.082;38.772;2024-03-23T08:38:29;98537.84;;;5.35;76.66
71948;BME280;63257;55.082;38.772;2024-03-23T08:40:59;98518.66;;;5.34;76.64
71948;BME280;63257;55.082;38.772;2024-03-23T08:43:26;98499.34;;;5.37;77.07
71948;BME280;63257;55.082;38.772;2024-03-23T08:45:52;98476.72;;;5.04;76.66
71948;BME280;63257;55.082;38.772;2024-03-23T08:48:21;98520.38;;;5.35;77.28
71948;BME280;63257;55.082;38.772;2024-03-23T08:50:47;98494.72;;;5.42;77.25
71948;BME280;63257;55.082;38.772;2024-03-23T08:53:14;98518.41;;;5.55;76.36
71948;BME280;63257;55.082;38.772;2024-03-23T08:55:40;98519.78;;;5.46;76.90
71948;BME280;63257;55.082;38.772;2024-03-23T08:58:06;98514.22;;;5.52;76.89
71948;BME280;63257;55.082;38.772;2024-03-23T09:00:34;98517.41;;;5.57;77.41
71948;BME280;63257;55.082;38.772;2024-03-23T09:03:00;98497.88;;;5.63;77.25
71948;BME280;63257;55.082;38.772;2024-03-23T09:05:27;98515.97;;;5.68;76.60
71948;BME280;63257;55.082;38.772;2024-03-23T09:07:54;98494.66;;;5.74;77.27
71948;BME280;63257;55.082;38.772;2024-03-23T09:10:20;98499.31;;;6.01;76.93
71948;BME280;63257;55.082;38.772;2024-03-23T09:12:46;98485.50;;;5.97;76.27
71948;BME280;63257;55.082;38.772;2024-03-23T09:15:11;98477.84;;;5.94;76.57
71948;BME280;63257;55.082;38.772;2024-03-23T09:17:37;98472.34;;;5.99;76.48
71948;BME280;63257;55.082;38.772;2024-03-23T09:20:03;98490.09;;;5.93;77.40
71948;BME280;63257;55.082;38.772;2024-03-23T09:22:30;98480.97;;;5.85;77.37
71948;BME280;63257;55.082;38.772;2024-03-23T09:24:55;98486.88;;;5.88;78.00
71948;BME280;63257;55.082;38.772;2024-03-23T09:27:21;98489.53;;;5.72;77.90
71948;BME280;63257;55.082;38.772;2024-03-23T09:29:47;98486.66;;;5.77;78.30
71948;BME280;63257;55.082;38.772;2024-03-23T09:32:13;98488.72;;;5.86;77.86
71948;BME280;63257;55.082;38.772;2024-03-23T09:34:38;98485.88;;;5.91;78.36
71948;BME280;63257;55.082;38.772;2024-03-23T09:37:04;98484.84;;;5.93;78.30
71948;BME280;63257;55.082;38.772;2024-03-23T09:39:30;98456.69;;;5.67;78.08
71948;BME280;63257;55.082;38.772;2024-03-23T09:41:57;98461.09;;;5.66;77.79
71948;BME280;63257;55.082;38.772;2024-03-23T09:44:24;98456.06;;;5.93;78.19
71948;BME280;63257;55.082;38.772;2024-03-23T09:46:51;98468.38;;;6.22;76.94
71948;BME280;63257;55.082;38.772;2024-03-23T09:49:17;98438.72;;;5.91;77.37
71948;BME280;63257;55.082;38.772;2024-03-23T09:51:43;98477.56;;;6.15;77.76
71948;BME280;63257;55.082;38.772;2024-03-23T09:54:09;98479.06;;;6.19;77.57
71948;BME280;63257;55.082;38.772;2024-03-23T09:56:35;98475.75;;;6.01;78.48
71948;BME280;63257;55.082;38.772;2024-03-23T09:59:02;98474.03;;;6.30;78.27
71948;BME280;63257;55.082;38.772;2024-03-23T10:01:30;98475.06;;;6.56;76.94
71948;BME280;63257;55.082;38.772;2024-03-23T10:03:56;98470.03;;;6.53;77.04
71948;BME280;63257;55.082;38.772;2024-03-23T10:06:22;98443.69;;;6.26;77.80
71948;BME280;63257;55.082;38.772;2024-03-23T10:08:52;98466.09;;;6.46;78.13
71948;BME280;63257;55.082;38.772;2024-03-23T10:11:20;98470.84;;;6.39;78.13
71948;BME280;63257;55.082;38.772;2024-03-23T10:13:47;98459.34;;;6.42;78.69
71948;BME280;63257;55.082;38.772;2024-03-23T10:16:23;98467.31;;;6.40;78.49
71948;BME280;63257;55.082;38.772;2024-03-23T10:18:49;98427.06;;;5.97;79.24
71948;BME280;63257;55.082;38.772;2024-03-23T10:21:16;98459.16;;;6.00;79.64
71948;BME280;63257;55.082;38.772;2024-03-23T10:23:43;98463.91;;;5.93;80.55
71948;BME280;63257;55.082;38.772;2024-03-23T10:26:25;98458.59;;;5.79;80.68
71948;BME280;63257;55.082;38.772;2024-03-23T10:28:59;98451.53;;;5.81;80.64
71948;BME280;63257;55.082;38.772;2024-03-23T10:31:37;98443.09;;;5.76;80.65
71948;BME280;63257;55.082;38.772;2024-03-23T10:34:03;98446.19;;;5.83;80.18
71948;BME280;63257;55.082;38.772;2024-03-23T10:36:30;98443.38;;;5.86;79.97
71948;BME280;63257;55.082;38.772;2024-03-23T10:38:56;98457.78;;;5.78;80.09
71948;BME280;63257;55.082;38.772;2024-03-23T10:41:28;98423.16;;;5.73;80.54
71948;BME280;63257;55.082;38.772;2024-03-23T10:43:58;98443.88;;;5.92;80.50
71948;BME280;63257;55.082;38.772;2024-03-23T10:46:24;98410.19;;;5.86;79.93
71948;BME280;63257;55.082;38.772;2024-03-23T10:48:50;98431.41;;;5.98;79.36
71948;BME280;63257;55.082;38.772;2024-03-23T10:51:16;98441.16;;;5.94;79.79
71948;BME280;63257;55.082;38.772;2024-03-23T10:53:42;98437.03;;;6.06;78.79
71948;BME280;63257;55.082;38.772;2024-03-23T10:56:09;98409.41;;;6.00;79.40
71948;BME280;63257;55.082;38.772;2024-03-23T10:58:41;98427.59;;;6.18;79.05
71948;BME280;63257;55.082;38.772;2024-03-23T11:01:11;98418.13;;;6.15;79.10
71948;BME280;63257;55.082;38.772;2024-03-23T11:03:38;98427.09;;;6.11;78.83
71948;BME280;63257;55.082;38.772;2024-03-23T11:06:05;98419.25;;;6.11;78.50
71948;BME280;63257;55.082;38.772;2024-03-23T11:08:32;98399.59;;;6.04;78.31
71948;BME280;63257;55.082;38.772;2024-03-23T11:11:21;98418.69;;;6.20;78.46
71948;BME280;63257;55.082;38.772;2024-03-23T11:13:49;98402.41;;;6.15;77.75
71948;BME280;63257;55.082;38.772;2024-03-23T11:16:26;98407.78;;;6.28;77.34
71948;BME280;63257;55.082;38.772;2024-03-23T11:19:35;98411.22;;;6.28;77.67
71948;BME280;63257;55.082;38.772;2024-03-23T11:22:04;98401.97;;;6.23;77.57
71948;BME280;63257;55.082;38.772;2024-03-23T11:24:33;98391.06;;;6.00;78.21
71948;BME280;63257;55.082;38.772;2024-03-23T11:27:00;98379.06;;;5.96;78.60
71948;BME280;63257;55.082;38.772;2024-03-23T11:29:30;98387.31;;;6.04;78.51
71948;BME280;63257;55.082;38.772;2024-03-23T11:31:59;98388.94;;;6.07;77.74
71948;BME280;63257;55.082;38.772;2024-03-23T11:34:27;98394.94;;;6.09;78.32
71948;BME280;63257;55.082;38.772;2024-03-23T11:37:03;98387.97;;;5.93;78.23
71948;BME280;63257;55.082;38.772;2024-03-23T11:39:29;98391.91;;;6.01;77.70
71948;BME280;63257;55.082;38.772;2024-03-23T11:41:56;98383.56;;;5.94;78.39
71948;BME280;63257;55.082;38.772;2024-03-23T11:44:25;98402.31;;;6.02;78.16
71948;BME280;63257;55.082;38.772;2024-03-23T11:46:51;98396.97;;;6.04;78.51
71948;BME280;63257;55.082;38.772;2024-03-23T11:49:29;98388.44;;;6.00;78.38
71948;BME280;63257;55.082;38.772;2024-03-23T11:51:56;98362.50;;;5.81;78.42
71948;BME280;63257;55.082;38.772;2024-03-23T11:54:24;98383.47;;;5.95;79.07
71948;BME280;63257;55.082;38.772;2024-03-23T11:57:00;98373.50;;;6.02;78.14
71948;BME280;63257;55.082;38.772;2024-03-23T11:59:36;98336.84;;;5.72;78.23
71948;BME280;63257;55.082;38.772;2024-03-23T12:04:33;98348.41;;;5.98;77.99
71948;BME280;63257;55.082;38.772;2024-03-23T12:07:18;98356.38;;;6.11;77.02
71948;BME280;63257;55.082;38.772;2024-03-23T12:09:45;98326.97;;;5.91;77.58
71948;BME280;63257;55.082;38.772;2024-03-23T12:12:18;98355.72;;;6.07;77.45
71948;BME280;63257;55.082;38.772;2024-03-23T12:14:45;98354.78;;;6.08;77.33
71948;BME280;63257;55.082;38.772;2024-03-23T12:17:15;98352.63;;;6.01;77.60
71948;BME280;63257;55.082;38.772;2024-03-23T12:19:41;98358.59;;;6.03;77.43
71948;BME280;63257;55.082;38.772;2024-03-23T12:22:08;98364.38;;;5.93;78.12
71948;BME280;63257;55.082;38.772;2024-03-23T12:24:35;98342.00;;;5.73;78.80
71948;BME280;63257;55.082;38.772;2024-03-23T12:29:29;98348.53;;;5.81;79.24
71948;BME280;63257;55.082;38.772;2024-03-23T12:31:55;98340.50;;;5.69;79.13
71948;BME280;63257;55.082;38.772;2024-03-23T12:34:21;98332.81;;;5.66;79.31
71948;BME280;63257;55.082;38.772;2024-03-23T12:36:47;98362.00;;;5.74;79.66
71948;BME280;63257;55.082;38.772;2024-03-23T12:39:13;98346.66;;;5.68;79.70
71948;BME280;63257;55.082;38.772;2024-03-23T12:41:38;98350.13;;;5.69;79.46
71948;BME280;63257;55.082;38.772;2024-03-23T12:44:04;98350.28;;;5.66;80.20
71948;BME280;63257;55.082;38.772;2024-03-23T12:46:30;98329.13;;;5.54;81.24
71948;BME280;63257;55.082;38.772;2024-03-23T12:48:56;98347.03;;;5.62;80.86
71948;BME280;63257;55.082;38.772;2024-03-23T12:51:23;98326.72;;;5.51;80.69
71948;BME280;63257;55.082;38.772;2024-03-23T12:53:49;98323.03;;;5.39;81.21
71948;BME280;63257;55.082;38.772;2024-03-23T12:56:15;98333.84;;;5.33;81.80
71948;BME280;63257;55.082;38.772;2024-03-23T12:58:41;98344.72;;;5.41;82.09
71948;BME280;63257;55.082;38.772;2024-03-23T13:01:07;98317.56;;;5.28;82.22
71948;BME280;63257;55.082;38.772;2024-03-23T13:03:33;98343.47;;;5.33;82.83
71948;BME280;63257;55.082;38.772;2024-03-23T13:05:58;98326.88;;;5.18;83.24
71948;BME280;63257;55.082;38.772;2024-03-23T13:08:24;98338.81;;;5.38;82.45
71948;BME280;63257;55.082;38.772;2024-03-23T13:10:53;98316.69;;;5.13;83.47
71948;BME280;63257;55.082;38.772;2024-03-23T13:13:19;98317.59;;;5.12;83.68
71948;BME280;63257;55.082;38.772;2024-03-23T13:15:51;98348.47;;;5.21;84.18
71948;BME280;63257;55.082;38.772;2024-03-23T13:18:17;98355.31;;;5.24;83.82
71948;BME280;63257;55.082;38.772;2024-03-23T13:20:43;98325.44;;;5.12;84.08
71948;BME280;63257;55.082;38.772;2024-03-23T13:23:08;98322.41;;;5.04;84.72
71948;BME280;63257;55.082;38.772;2024-03-23T13:25:34;98331.84;;;5.22;84.66
71948;BME280;63257;55.082;38.772;2024-03-23T13:28:01;98336.84;;;5.11;84.96
71948;BME280;63257;55.082;38.772;2024-03-23T13:30:27;98330.84;;;5.09;85.22
71948;BME280;63257;55.082;38.772;2024-03-23T13:32:53;98323.00;;;5.09;85.18
71948;BME280;63257;55.082;38.772;2024-03-23T13:35:19;98314.56;;;5.04;85.32
71948;BME280;63257;55.082;38.772;2024-03-23T13:37:44;98316.53;;;5.00;86.60
71948;BME280;63257;55.082;38.772;2024-03-23T13:40:11;98322.59;;;5.01;86.67
71948;BME280;63257;55.082;38.772;2024-03-23T13:42:36;98317.38;;;5.01;86.65
71948;BME280;63257;55.082;38.772;2024-03-23T13:45:03;98309.13;;;4.92;86.60
71948;BME280;63257;55.082;38.772;2024-03-23T13:47:30;98289.41;;;4.87;86.71
71948;BME280;63257;55.082;38.772;2024-03-23T13:49:56;98293.69;;;4.88;87.16
71948;BME280;63257;55.082;38.772;2024-03-23T13:52:21;98298.75;;;4.91;87.48
71948;BME280;63257;55.082;38.772;2024-03-23T13:54:51;98292.94;;;4.86;87.73
71948;BME280;63257;55.082;38.772;2024-03-23T13:57:17;98306.31;;;4.96;87.92